createdAt,value
2019-05-18T00:01:13.680Z,11.36
2019-05-18T00:02:13.723Z,11.40
2019-05-18T00:04:06.717Z,11.41
2019-05-18T00:05:06.762Z,11.45
2019-05-18T00:06:59.742Z,11.27
2019-05-18T00:07:59.804Z,11.19
2019-05-18T00:09:52.802Z,11.26
2019-05-18T00:10:52.841Z,11.29
2019-05-18T00:12:45.858Z,11.23
2019-05-18T00:13:45.885Z,11.19
2019-05-18T00:15:38.893Z,11.22
2019-05-18T00:16:38.933Z,11.19
2019-05-18T00:18:31.911Z,11.30
2019-05-18T00:19:31.970Z,11.19
2019-05-18T00:21:24.976Z,11.19
2019-05-18T00:22:25.011Z,11.11
2019-05-18T00:24:18.014Z,11.15
2019-05-18T00:25:18.058Z,11.23
2019-05-18T00:27:11.043Z,11.19
2019-05-18T00:28:11.096Z,11.22
2019-05-18T00:30:04.102Z,11.25
2019-05-18T00:31:04.139Z,11.19
2019-05-18T00:32:57.129Z,11.22
2019-05-18T00:33:57.173Z,11.19
2019-05-18T00:35:50.178Z,11.08
2019-05-18T00:36:50.218Z,11.05
2019-05-18T00:38:43.235Z,11.08
2019-05-18T00:39:43.261Z,11.02
2019-05-18T00:41:36.240Z,11.10
2019-05-18T00:42:36.295Z,10.97
2019-05-18T00:44:29.294Z,10.94
2019-05-18T00:45:29.335Z,10.97
2019-05-18T00:47:22.313Z,11.05
2019-05-18T00:48:22.377Z,10.97
2019-05-18T00:50:15.379Z,11.00
2019-05-18T00:51:15.415Z,10.93
2019-05-18T00:53:08.396Z,10.81
2019-05-18T00:54:08.454Z,10.86
2019-05-18T00:56:01.461Z,10.75
2019-05-18T00:57:01.494Z,10.81
2019-05-18T00:58:54.485Z,10.74
2019-05-18T00:59:54.534Z,10.76
2019-05-18T01:01:47.539Z,10.79
2019-05-18T01:02:47.586Z,10.71
2019-05-18T01:04:40.583Z,10.69
2019-05-18T01:05:40.614Z,10.64
2019-05-18T01:07:33.597Z,10.61
2019-05-18T01:08:33.654Z,10.67
2019-05-18T01:10:26.654Z,10.64
2019-05-18T01:11:26.691Z,10.57
2019-05-18T01:13:19.690Z,10.60
2019-05-18T01:14:19.728Z,10.60
2019-05-18T01:16:12.722Z,10.63
2019-05-18T01:17:12.773Z,10.59
2019-05-18T01:19:05.773Z,10.69
2019-05-18T01:20:05.811Z,10.60
2019-05-18T01:21:58.847Z,10.63
2019-05-18T01:22:58.850Z,10.54
2019-05-18T01:24:51.849Z,10.49
2019-05-18T01:25:51.889Z,10.48
2019-05-18T01:27:44.865Z,10.38
2019-05-18T01:28:44.923Z,10.46
2019-05-18T01:30:37.923Z,10.46
2019-05-18T01:31:37.961Z,10.40
2019-05-18T01:33:30.965Z,10.34
2019-05-18T01:34:31.003Z,10.33
2019-05-18T01:36:24.016Z,10.31
2019-05-18T01:37:24.042Z,10.26
2019-05-18T01:39:17.034Z,10.26
2019-05-18T01:40:17.118Z,10.30
2019-05-18T01:42:10.107Z,10.25
2019-05-18T01:43:10.132Z,10.17
2019-05-18T01:45:15.805Z,10.22
2019-05-18T01:46:03.167Z,10.16
2019-05-18T01:47:56.169Z,10.20
2019-05-18T01:48:56.208Z,10.19
2019-05-18T01:50:49.201Z,10.13
2019-05-18T01:51:49.252Z,10.15
2019-05-18T01:53:42.259Z,10.12
2019-05-18T01:54:42.279Z,10.15
2019-05-18T01:56:35.274Z,10.02
2019-05-18T01:57:35.334Z,10.04
2019-05-18T01:59:28.332Z,9.97
2019-05-18T02:00:28.363Z,9.97
2019-05-18T02:02:21.351Z,10.13
2019-05-18T02:03:21.407Z,10.05
2019-05-18T02:05:14.405Z,10.07
2019-05-18T02:06:14.456Z,9.98
2019-05-18T02:08:07.446Z,9.99
2019-05-18T02:09:07.488Z,10.04
2019-05-18T02:11:00.498Z,9.97
2019-05-18T02:12:00.524Z,9.99
2019-05-18T02:13:53.508Z,9.92
2019-05-18T02:14:53.561Z,9.92
2019-05-18T02:16:46.556Z,9.84
2019-05-18T02:17:46.598Z,9.98
2019-05-18T02:19:39.585Z,9.89
2019-05-18T02:20:39.639Z,9.82
2019-05-18T02:22:32.716Z,9.87
2019-05-18T02:23:32.756Z,9.80
2019-05-18T02:25:25.734Z,9.86
2019-05-18T02:26:25.794Z,9.76
2019-05-18T02:28:18.806Z,9.74
2019-05-18T02:29:18.829Z,9.79
2019-05-18T02:31:12.327Z,9.73
2019-05-18T02:32:12.373Z,9.74
2019-05-18T02:34:05.397Z,9.69
2019-05-18T02:35:05.425Z,9.74
2019-05-18T02:36:58.407Z,9.77
2019-05-18T02:37:58.460Z,9.76
2019-05-18T02:39:51.465Z,9.73
2019-05-18T02:40:51.508Z,9.61
2019-05-18T02:42:44.491Z,9.74
2019-05-18T02:43:44.544Z,9.69
2019-05-18T02:45:37.559Z,9.73
2019-05-18T02:46:37.587Z,9.73
2019-05-18T02:48:47.617Z,9.73
2019-05-18T02:49:30.617Z,9.74
2019-05-18T02:51:23.632Z,9.73
2019-05-18T02:52:23.662Z,9.62
2019-05-18T02:54:16.641Z,9.66
2019-05-18T02:55:16.702Z,9.69
2019-05-18T02:57:09.709Z,9.73
2019-05-18T02:58:09.736Z,9.66
2019-05-18T03:00:02.718Z,9.64
2019-05-18T03:01:02.776Z,9.61
2019-05-18T03:02:55.773Z,9.62
2019-05-18T03:03:55.811Z,9.58
2019-05-18T03:05:48.793Z,9.61
2019-05-18T03:06:48.854Z,9.62
2019-05-18T03:08:41.914Z,9.56
2019-05-18T03:09:41.895Z,9.62
2019-05-18T03:11:34.877Z,9.50
2019-05-18T03:12:34.936Z,9.54
2019-05-18T03:14:27.946Z,9.73
2019-05-18T03:15:27.973Z,9.72
2019-05-18T03:17:20.961Z,9.77
2019-05-18T03:18:21.061Z,9.79
2019-05-18T03:20:14.016Z,9.69
2019-05-18T03:21:14.039Z,9.73
2019-05-18T03:23:07.025Z,9.86
2019-05-18T03:24:07.084Z,9.73
2019-05-18T03:26:00.075Z,9.64
2019-05-18T03:27:00.122Z,9.62
2019-05-18T03:28:53.130Z,9.64
2019-05-18T03:29:53.156Z,9.59
2019-05-18T03:31:46.646Z,9.64
2019-05-18T03:32:46.701Z,9.59
2019-05-18T03:34:39.736Z,9.64
2019-05-18T03:35:39.762Z,9.65
2019-05-18T03:37:32.718Z,9.69
2019-05-18T03:38:32.778Z,9.68
2019-05-18T03:40:25.791Z,9.68
2019-05-18T03:41:25.822Z,9.72
2019-05-18T03:43:18.800Z,9.74
2019-05-18T03:44:18.855Z,9.64
2019-05-18T03:46:11.867Z,9.68
2019-05-18T03:47:11.897Z,9.59
2019-05-18T03:49:04.870Z,9.62
2019-05-18T03:50:04.926Z,9.64
2019-05-18T03:51:57.934Z,9.61
2019-05-18T03:52:57.960Z,9.61
2019-05-18T03:54:50.942Z,9.65
2019-05-18T03:55:50.997Z,9.62
2019-05-18T03:57:44.003Z,9.66
2019-05-18T03:58:44.040Z,9.65
2019-05-18T04:00:37.039Z,9.62
2019-05-18T04:01:37.154Z,9.61
2019-05-18T04:03:30.073Z,9.61
2019-05-18T04:04:30.114Z,9.61
2019-05-18T04:06:23.097Z,9.58
2019-05-18T04:07:23.153Z,9.73
2019-05-18T04:09:16.154Z,9.65
2019-05-18T04:10:16.194Z,9.65
2019-05-18T04:12:09.176Z,9.65
2019-05-18T04:13:09.248Z,9.69
2019-05-18T04:15:02.250Z,9.65
2019-05-18T04:16:02.282Z,9.61
2019-05-18T04:17:55.261Z,9.66
2019-05-18T04:18:55.320Z,9.64
2019-05-18T04:20:48.318Z,9.74
2019-05-18T04:21:48.357Z,9.69
2019-05-18T04:23:41.356Z,9.73
2019-05-18T04:24:41.394Z,9.79
2019-05-18T04:26:34.385Z,9.79
2019-05-18T04:27:34.432Z,9.80
2019-05-18T04:29:27.435Z,9.86
2019-05-18T04:30:27.471Z,9.83
2019-05-18T04:32:20.455Z,9.94
2019-05-18T04:33:20.516Z,10.01
2019-05-18T04:35:13.510Z,10.12
2019-05-18T04:36:13.550Z,10.07
2019-05-18T04:38:06.549Z,10.17
2019-05-18T04:39:06.588Z,10.10
2019-05-18T04:40:59.573Z,10.13
2019-05-18T04:41:59.632Z,10.13
2019-05-18T04:43:52.641Z,10.19
2019-05-18T04:44:52.672Z,10.15
2019-05-18T04:46:45.655Z,10.26
2019-05-18T04:47:48.465Z,10.25
2019-05-18T04:49:38.724Z,10.38
2019-05-18T04:50:38.764Z,10.33
2019-05-18T04:52:31.818Z,10.37
2019-05-18T04:53:31.805Z,10.38
2019-05-18T04:55:24.853Z,10.54
2019-05-18T04:56:24.850Z,10.56
2019-05-18T04:58:17.829Z,10.57
2019-05-18T04:59:17.887Z,10.57
2019-05-18T05:01:10.891Z,10.60
2019-05-18T05:02:10.961Z,10.68
2019-05-18T05:04:03.915Z,10.78
2019-05-18T05:05:03.971Z,10.79
2019-05-18T05:06:56.968Z,10.74
2019-05-18T05:07:57.022Z,10.90
2019-05-18T05:09:50.023Z,10.99
2019-05-18T05:10:50.060Z,11.04
2019-05-18T05:12:43.058Z,11.11
2019-05-18T05:13:43.097Z,11.08
2019-05-18T05:15:36.100Z,11.26
2019-05-18T05:16:36.176Z,11.27
2019-05-18T05:18:29.230Z,11.26
2019-05-18T05:19:29.383Z,11.36
2019-05-18T05:21:22.254Z,11.40
2019-05-18T05:22:22.262Z,11.43
2019-05-18T05:24:15.234Z,11.41
2019-05-18T05:25:15.315Z,11.50
2019-05-18T05:27:08.363Z,11.57
2019-05-18T05:28:08.538Z,11.51
2019-05-18T05:30:01.378Z,11.48
2019-05-18T05:31:01.367Z,11.59
2019-05-18T05:32:54.410Z,11.65
2019-05-18T05:33:54.416Z,11.72
2019-05-18T05:35:47.466Z,11.83
2019-05-18T05:36:47.715Z,11.88
2019-05-18T05:38:40.422Z,12.06
2019-05-18T05:39:40.522Z,12.04
2019-05-18T05:41:33.509Z,12.06
2019-05-18T05:42:33.507Z,12.25
2019-05-18T05:44:26.493Z,12.20
2019-05-18T05:45:26.553Z,12.31
2019-05-18T05:47:19.558Z,12.35
2019-05-18T05:48:19.596Z,12.43
2019-05-18T05:50:12.578Z,12.45
2019-05-18T05:51:12.637Z,12.68
2019-05-18T05:53:05.698Z,12.79
2019-05-18T05:54:05.738Z,12.82
2019-05-18T05:55:58.736Z,12.97
2019-05-18T05:56:58.782Z,13.04
2019-05-18T05:58:51.772Z,13.15
2019-05-18T05:59:51.832Z,13.18
2019-05-18T06:01:44.829Z,13.28
2019-05-18T06:02:44.876Z,13.44
2019-05-18T06:04:37.877Z,13.68
2019-05-18T06:05:37.930Z,13.89
2019-05-18T06:07:30.902Z,14.41
2019-05-18T06:08:30.958Z,14.54
2019-05-18T06:10:23.954Z,15.11
2019-05-18T06:11:23.997Z,15.73
2019-05-18T06:13:16.990Z,17.76
2019-05-18T06:14:17.039Z,18.70
2019-05-18T06:16:10.041Z,20.03
2019-05-18T06:17:10.081Z,20.16
2019-05-18T06:19:03.093Z,20.70
2019-05-18T06:20:03.132Z,20.74
2019-05-18T06:21:56.141Z,21.21
2019-05-18T06:22:56.186Z,21.57
2019-05-18T06:24:49.181Z,22.18
2019-05-18T06:25:49.235Z,22.88
2019-05-18T06:27:42.230Z,22.22
2019-05-18T06:28:42.295Z,22.25
2019-05-18T06:30:35.304Z,22.22
2019-05-18T06:31:35.371Z,21.99
2019-05-18T06:33:28.367Z,22.62
2019-05-18T06:34:28.477Z,22.06
2019-05-18T06:36:21.418Z,21.82
2019-05-18T06:37:21.466Z,21.82
2019-05-18T06:39:14.479Z,23.24
2019-05-18T06:40:14.527Z,23.69
2019-05-18T06:42:10.658Z,25.07
2019-05-18T06:43:07.587Z,25.69
2019-05-18T06:45:00.647Z,26.22
2019-05-18T06:46:00.787Z,26.51
2019-05-18T06:47:53.705Z,27.14
2019-05-18T06:48:53.754Z,27.32
2019-05-18T06:50:46.797Z,27.71
2019-05-18T06:51:46.825Z,27.68
2019-05-18T06:53:39.902Z,27.93
2019-05-18T06:54:39.934Z,28.22
2019-05-18T06:56:32.973Z,27.90
2019-05-18T06:57:33.030Z,27.51
2019-05-18T06:59:26.035Z,27.51
2019-05-18T07:00:26.104Z,28.00
2019-05-18T07:02:19.129Z,28.29
2019-05-18T07:03:19.180Z,28.64
2019-05-18T07:05:12.202Z,28.14
2019-05-18T07:06:12.255Z,27.80
2019-05-18T07:08:05.283Z,27.12
2019-05-18T07:09:05.341Z,28.05
2019-05-18T07:10:58.365Z,27.74
2019-05-18T07:11:58.422Z,26.83
2019-05-18T07:13:51.453Z,28.47
2019-05-18T07:14:51.503Z,28.41
2019-05-18T07:16:44.553Z,28.56
2019-05-18T07:17:44.581Z,28.01
2019-05-18T07:19:37.600Z,25.80
2019-05-18T07:20:37.669Z,24.74
2019-05-18T07:22:30.708Z,23.65
2019-05-18T07:23:30.762Z,23.80
2019-05-18T07:25:23.763Z,24.70
2019-05-18T07:26:23.832Z,24.74
2019-05-18T07:28:16.862Z,26.38
2019-05-18T07:29:16.911Z,28.08
2019-05-18T07:31:09.919Z,30.25
2019-05-18T07:32:10.217Z,30.55
2019-05-18T07:34:03.025Z,31.37
2019-05-18T07:35:03.096Z,31.43
2019-05-18T07:36:56.116Z,30.54
2019-05-18T07:37:56.161Z,30.61
2019-05-18T07:39:49.208Z,31.00
2019-05-18T07:40:49.240Z,31.42
2019-05-18T07:42:42.290Z,29.94
2019-05-18T07:43:42.325Z,29.13
2019-05-18T07:45:35.367Z,29.22
2019-05-18T07:46:35.419Z,28.88
2019-05-18T07:48:28.433Z,28.47
2019-05-18T07:49:28.504Z,28.30
2019-05-18T07:51:35.085Z,28.76
2019-05-18T07:52:21.598Z,29.91
2019-05-18T07:54:14.613Z,30.61
2019-05-18T07:55:14.692Z,31.54
2019-05-18T07:57:07.737Z,31.61
2019-05-18T07:58:07.778Z,32.55
2019-05-18T08:00:00.801Z,31.77
2019-05-18T08:01:00.879Z,31.10
2019-05-18T08:02:53.917Z,30.96
2019-05-18T08:03:53.984Z,30.51
2019-05-18T08:05:47.006Z,29.90
2019-05-18T08:06:47.070Z,29.07
2019-05-18T08:08:40.089Z,27.21
2019-05-18T08:09:40.175Z,26.74
2019-05-18T08:11:33.205Z,25.44
2019-05-18T08:12:33.254Z,24.92
2019-05-18T08:14:26.266Z,24.77
2019-05-18T08:15:26.346Z,24.77
2019-05-18T08:17:19.382Z,25.36
2019-05-18T08:18:19.435Z,25.04
2019-05-18T08:20:12.464Z,25.40
2019-05-18T08:21:12.516Z,25.70
2019-05-18T08:23:05.523Z,25.69
2019-05-18T08:24:05.609Z,25.22
2019-05-18T08:25:58.652Z,25.63
2019-05-18T08:27:02.019Z,25.32
2019-05-18T08:28:51.708Z,25.81
2019-05-18T08:29:51.778Z,25.90
2019-05-18T08:31:45.311Z,25.73
2019-05-18T08:32:45.373Z,25.80
2019-05-18T08:34:38.471Z,25.06
2019-05-18T08:35:38.512Z,24.96
2019-05-18T08:37:31.541Z,24.96
2019-05-18T08:38:31.591Z,25.35
2019-05-18T08:40:24.619Z,25.63
2019-05-18T08:41:24.665Z,25.66
2019-05-18T08:43:17.712Z,25.54
2019-05-18T08:44:17.746Z,25.78
2019-05-18T08:46:10.821Z,25.72
2019-05-18T08:47:10.822Z,25.66
2019-05-18T08:49:03.855Z,26.44
2019-05-18T08:50:03.910Z,26.90
2019-05-18T08:52:07.830Z,26.58
2019-05-18T08:52:56.989Z,26.63
2019-05-18T08:54:49.996Z,26.81
2019-05-18T08:55:50.069Z,26.70
2019-05-18T08:57:43.104Z,25.87
2019-05-18T08:58:43.162Z,25.91
2019-05-18T09:00:36.199Z,25.72
2019-05-18T09:01:36.248Z,26.22
2019-05-18T09:03:29.257Z,26.90
2019-05-18T09:04:29.333Z,26.71
2019-05-18T09:06:22.369Z,27.22
2019-05-18T09:07:22.417Z,27.49
2019-05-18T09:09:15.428Z,28.42
2019-05-18T09:10:15.499Z,28.64
2019-05-18T09:12:08.567Z,28.29
2019-05-18T09:13:08.582Z,27.05
2019-05-18T09:15:01.601Z,25.98
2019-05-18T09:16:01.671Z,25.80
2019-05-18T09:17:54.700Z,25.78
2019-05-18T09:18:54.759Z,25.91
2019-05-18T09:20:48.265Z,26.21
2019-05-18T09:21:48.361Z,26.22
2019-05-18T09:23:41.367Z,26.40
2019-05-18T09:24:41.422Z,26.26
2019-05-18T09:26:34.448Z,25.59
2019-05-18T09:27:34.498Z,25.08
2019-05-18T09:29:27.521Z,24.86
2019-05-18T09:30:27.583Z,24.92
2019-05-18T09:32:21.131Z,25.06
2019-05-18T09:33:21.165Z,25.18
2019-05-18T09:35:14.181Z,25.21
2019-05-18T09:36:14.252Z,24.93
2019-05-18T09:38:07.270Z,25.31
2019-05-18T09:39:07.328Z,25.62
2019-05-18T09:41:00.334Z,26.16
2019-05-18T09:42:00.401Z,26.22
2019-05-18T09:43:53.436Z,26.05
2019-05-18T09:44:53.483Z,25.75
2019-05-18T09:46:46.526Z,25.13
2019-05-18T09:47:46.561Z,25.11
2019-05-18T09:49:39.565Z,25.36
2019-05-18T09:50:39.634Z,25.41
2019-05-18T09:52:44.015Z,25.11
2019-05-18T09:53:32.702Z,25.06
2019-05-18T09:55:25.737Z,25.63
2019-05-18T09:56:25.778Z,25.72
2019-05-18T09:58:18.782Z,25.28
2019-05-18T09:59:18.855Z,25.10
2019-05-18T10:01:11.877Z,24.84
2019-05-18T10:02:11.926Z,24.61
2019-05-18T10:04:04.950Z,24.66
2019-05-18T10:05:05.114Z,24.50
2019-05-18T10:06:58.021Z,24.95
2019-05-18T10:07:58.072Z,25.08
2019-05-18T10:09:51.095Z,25.73
2019-05-18T10:10:51.149Z,25.58
2019-05-18T10:12:44.157Z,25.60
2019-05-18T10:13:44.223Z,25.54
2019-05-18T10:15:37.246Z,24.92
2019-05-18T10:16:37.296Z,25.01
2019-05-18T10:18:30.335Z,24.96
2019-05-18T10:19:30.368Z,24.84
2019-05-18T10:21:23.374Z,24.33
2019-05-18T10:22:23.440Z,24.35
2019-05-18T10:24:16.468Z,24.55
2019-05-18T10:25:16.526Z,24.70
2019-05-18T10:27:09.524Z,25.06
2019-05-18T10:28:09.594Z,25.07
2019-05-18T10:30:02.607Z,25.10
2019-05-18T10:31:02.666Z,24.92
2019-05-18T10:32:55.683Z,24.88
2019-05-18T10:33:55.731Z,24.77
2019-05-18T10:35:48.741Z,25.16
2019-05-18T10:36:48.807Z,25.41
2019-05-18T10:38:41.872Z,25.06
2019-05-18T10:39:41.920Z,24.73
2019-05-18T10:41:34.924Z,24.84
2019-05-18T10:42:34.997Z,24.74
2019-05-18T10:44:28.019Z,24.74
2019-05-18T10:45:28.075Z,24.93
2019-05-18T10:47:21.071Z,25.04
2019-05-18T10:48:21.139Z,24.93
2019-05-18T10:50:14.169Z,25.25
2019-05-18T10:51:14.212Z,25.33
2019-05-18T10:53:07.232Z,25.44
2019-05-18T10:54:07.284Z,24.93
2019-05-18T10:56:00.300Z,24.61
2019-05-18T10:57:00.370Z,24.99
2019-05-18T10:58:53.438Z,24.91
2019-05-18T10:59:53.438Z,25.06
2019-05-18T11:01:46.462Z,25.46
2019-05-18T11:02:46.513Z,25.25
2019-05-18T11:04:40.198Z,25.04
2019-05-18T11:05:40.095Z,24.73
2019-05-18T11:07:33.101Z,24.38
2019-05-18T11:08:33.170Z,24.42
2019-05-18T11:10:26.200Z,24.54
2019-05-18T11:11:26.246Z,24.51
2019-05-18T11:13:19.250Z,24.81
2019-05-18T11:14:19.316Z,24.61
2019-05-18T11:16:12.340Z,24.65
2019-05-18T11:17:12.392Z,24.85
2019-05-18T11:19:05.400Z,24.76
2019-05-18T11:20:05.465Z,24.73
2019-05-18T11:21:58.489Z,24.68
2019-05-18T11:22:58.535Z,24.73
2019-05-18T11:24:51.541Z,24.13
2019-05-18T11:25:51.609Z,24.14
2019-05-18T11:27:44.633Z,23.98
2019-05-18T11:28:44.675Z,23.78
2019-05-18T11:30:37.688Z,23.83
2019-05-18T11:31:37.745Z,24.06
2019-05-18T11:33:30.771Z,24.21
2019-05-18T11:34:30.818Z,24.21
2019-05-18T11:36:23.855Z,24.32
2019-05-18T11:37:23.905Z,24.18
2019-05-18T11:39:16.906Z,24.05
2019-05-18T11:40:16.969Z,24.21
2019-05-18T11:42:10.006Z,24.26
2019-05-18T11:43:10.038Z,24.36
2019-05-18T11:45:03.042Z,24.57
2019-05-18T11:46:03.106Z,24.53
2019-05-18T11:47:56.134Z,24.35
2019-05-18T11:48:56.183Z,24.14
2019-05-18T11:50:49.200Z,23.99
2019-05-18T11:51:49.246Z,23.91
2019-05-18T11:53:42.255Z,23.87
2019-05-18T11:54:42.324Z,23.83
2019-05-18T11:56:35.341Z,23.73
2019-05-18T11:57:35.385Z,23.68
2019-05-18T11:59:28.389Z,23.73
2019-05-18T12:00:28.456Z,23.71
2019-05-18T12:02:21.481Z,23.69
2019-05-18T12:03:21.527Z,23.73
2019-05-18T12:05:14.539Z,23.80
2019-05-18T12:06:14.587Z,23.96
2019-05-18T12:08:07.607Z,24.21
2019-05-18T12:09:07.683Z,24.13
2019-05-18T12:11:00.679Z,24.24
2019-05-18T12:12:00.718Z,24.36
2019-05-18T12:13:53.721Z,24.21
2019-05-18T12:14:53.782Z,24.16
2019-05-18T12:16:46.794Z,24.45
2019-05-18T12:17:46.844Z,24.36
2019-05-18T12:19:39.854Z,24.48
2019-05-18T12:20:39.909Z,24.29
2019-05-18T12:22:32.935Z,24.02
2019-05-18T12:23:32.985Z,23.95
2019-05-18T12:25:25.992Z,24.18
2019-05-18T12:26:26.042Z,24.39
2019-05-18T12:28:19.079Z,24.54
2019-05-18T12:29:19.124Z,24.48
2019-05-18T12:31:12.148Z,24.73
2019-05-18T12:32:12.197Z,24.66
2019-05-18T12:34:05.208Z,24.32
2019-05-18T12:35:05.247Z,24.21
2019-05-18T12:36:58.281Z,24.43
2019-05-18T12:37:58.319Z,24.51
2019-05-18T12:39:51.344Z,24.51
2019-05-18T12:40:51.386Z,24.73
2019-05-18T12:42:44.402Z,24.78
2019-05-18T12:43:44.450Z,24.80
2019-05-18T12:45:37.447Z,24.88
2019-05-18T12:46:37.515Z,24.88
2019-05-18T12:48:30.535Z,24.96
2019-05-18T12:49:30.598Z,24.96
2019-05-18T12:51:23.584Z,24.73
2019-05-18T12:52:23.647Z,24.76
2019-05-18T12:54:28.805Z,24.74
2019-05-18T12:55:16.713Z,24.76
2019-05-18T12:57:09.726Z,24.80
2019-05-18T12:58:09.771Z,24.88
2019-05-18T13:00:02.775Z,25.25
2019-05-18T13:01:02.843Z,25.23
2019-05-18T13:02:55.913Z,25.22
2019-05-18T13:03:55.907Z,25.21
2019-05-18T13:05:48.928Z,25.18
2019-05-18T13:06:48.984Z,25.28
2019-05-18T13:08:41.995Z,25.11
2019-05-18T13:09:42.047Z,25.10
2019-05-18T13:11:35.055Z,25.04
2019-05-18T13:12:35.115Z,24.91
2019-05-18T13:14:28.200Z,24.99
2019-05-18T13:15:28.187Z,24.93
2019-05-18T13:17:21.469Z,24.65
2019-05-18T13:18:21.295Z,24.69
2019-05-18T13:20:14.308Z,24.70
2019-05-18T13:21:14.358Z,24.61
2019-05-18T13:23:07.492Z,24.65
2019-05-18T13:24:07.943Z,24.51
2019-05-18T13:26:38.739Z,24.48
2019-05-18T13:27:40.134Z,24.48
2019-05-18T13:29:31.821Z,24.54
2019-05-18T13:30:31.856Z,24.54
2019-05-18T13:32:49.104Z,24.73
2019-05-18T13:33:47.879Z,24.76
2019-05-18T13:35:40.904Z,24.95
2019-05-18T13:36:40.984Z,24.91
2019-05-18T13:38:34.802Z,24.84
2019-05-18T13:39:34.870Z,24.77
2019-05-18T13:41:27.898Z,24.78
2019-05-18T13:42:27.947Z,24.84
2019-05-18T13:44:20.967Z,24.93
2019-05-18T13:45:21.004Z,24.92
2019-05-18T13:47:13.996Z,25.07
2019-05-18T13:48:14.060Z,25.10
2019-05-18T13:50:07.102Z,25.08
2019-05-18T13:51:07.222Z,25.03
2019-05-18T13:53:00.551Z,24.78
2019-05-18T13:54:00.388Z,24.85
2019-05-18T13:56:14.082Z,24.63
2019-05-18T13:58:47.972Z,24.51
2019-05-18T13:59:48.067Z,24.48
2019-05-18T14:01:41.016Z,24.58
2019-05-18T14:02:41.101Z,24.69
2019-05-18T14:04:34.072Z,24.77
2019-05-18T14:05:41.891Z,24.96
2019-05-18T14:07:27.661Z,25.08
2019-05-18T14:08:27.687Z,25.07
2019-05-18T14:10:20.710Z,25.33
2019-05-18T14:11:20.757Z,25.38
2019-05-18T14:13:13.771Z,25.29
2019-05-18T14:14:13.820Z,25.29
2019-05-18T14:16:06.820Z,25.21
2019-05-18T14:17:06.887Z,25.07
2019-05-18T14:18:59.909Z,25.04
2019-05-18T14:19:59.948Z,25.11
2019-05-18T14:21:52.947Z,25.04
2019-05-18T14:22:53.012Z,25.03
2019-05-18T14:24:46.027Z,25.08
2019-05-18T14:25:46.286Z,25.06
2019-05-18T14:27:39.130Z,25.08
2019-05-18T14:28:39.259Z,24.95
2019-05-18T14:30:32.224Z,24.98
2019-05-18T14:31:32.272Z,24.95
2019-05-18T14:33:25.311Z,25.06
2019-05-18T14:34:25.339Z,25.08
2019-05-18T14:36:18.354Z,25.17
2019-05-18T14:37:18.405Z,25.29
2019-05-18T14:39:11.410Z,25.33
2019-05-18T14:40:11.477Z,25.36
2019-05-18T14:42:04.499Z,25.38
2019-05-18T14:43:04.551Z,25.38
2019-05-18T14:44:57.564Z,25.50
2019-05-18T14:45:57.621Z,25.46
2019-05-18T14:47:50.652Z,25.25
2019-05-18T14:48:50.689Z,25.11
2019-05-18T14:50:43.709Z,25.21
2019-05-18T14:51:43.784Z,25.33
2019-05-18T14:53:36.830Z,25.32
2019-05-18T14:54:36.841Z,25.33
2019-05-18T14:56:29.839Z,25.18
2019-05-18T14:57:29.905Z,25.03
2019-05-18T14:59:22.936Z,24.96
2019-05-18T15:00:22.970Z,24.85
2019-05-18T15:02:15.980Z,24.88
2019-05-18T15:03:16.044Z,24.76
2019-05-18T15:05:09.085Z,24.70
2019-05-18T15:06:09.108Z,24.77
2019-05-18T15:08:02.108Z,24.66
2019-05-18T15:09:02.177Z,24.69
2019-05-18T15:10:55.196Z,24.69
2019-05-18T15:11:55.247Z,24.70
2019-05-18T15:13:48.293Z,24.78
2019-05-18T15:14:48.319Z,24.74
2019-05-18T15:16:41.360Z,24.73
2019-05-18T15:17:41.405Z,24.76
2019-05-18T15:19:34.398Z,24.77
2019-05-18T15:20:34.478Z,24.81
2019-05-18T15:22:27.491Z,24.96
2019-05-18T15:23:27.529Z,24.91
2019-05-18T15:25:20.550Z,24.80
2019-05-18T15:26:20.593Z,24.96
2019-05-18T15:28:13.615Z,25.06
2019-05-18T15:29:13.658Z,25.08
2019-05-18T15:31:06.658Z,25.08
2019-05-18T15:32:06.733Z,25.11
2019-05-18T15:33:59.736Z,25.04
2019-05-18T15:34:59.786Z,25.04
2019-05-18T15:36:52.789Z,25.03
2019-05-18T15:37:52.851Z,24.93
2019-05-18T15:39:45.870Z,24.81
2019-05-18T15:40:45.916Z,24.86
2019-05-18T15:42:38.927Z,24.84
2019-05-18T15:43:38.988Z,24.88
2019-05-18T15:45:31.994Z,24.78
2019-05-18T15:46:32.052Z,24.96
2019-05-18T15:48:25.115Z,24.92
2019-05-18T15:49:25.127Z,24.99
2019-05-18T15:51:18.171Z,25.04
2019-05-18T15:52:18.193Z,25.10
2019-05-18T15:54:11.243Z,25.06
2019-05-18T15:55:11.271Z,25.10
2019-05-18T15:57:04.260Z,25.01
2019-05-18T15:58:04.335Z,25.07
2019-05-18T15:59:57.373Z,25.01
2019-05-18T16:00:57.424Z,24.92
2019-05-18T16:02:50.414Z,24.98
2019-05-18T16:03:50.484Z,24.99
2019-05-18T16:05:43.500Z,24.93
2019-05-18T16:06:43.610Z,24.81
2019-05-18T16:08:36.596Z,24.81
2019-05-18T16:09:36.612Z,24.77
2019-05-18T16:11:29.631Z,24.66
2019-05-18T16:12:29.674Z,24.65
2019-05-18T16:14:22.699Z,24.69
2019-05-18T16:15:22.739Z,24.61
2019-05-18T16:17:15.735Z,24.68
2019-05-18T16:18:15.808Z,24.73
2019-05-18T16:20:08.842Z,24.70
2019-05-18T16:21:08.868Z,24.69
2019-05-18T16:23:01.878Z,24.69
2019-05-18T16:24:01.967Z,24.76
2019-05-18T16:25:54.945Z,24.73
2019-05-18T16:26:55.079Z,24.68
2019-05-18T16:28:48.082Z,24.70
2019-05-18T16:29:48.080Z,24.61
2019-05-18T16:31:41.077Z,24.51
2019-05-18T16:32:41.142Z,24.65
2019-05-18T16:34:34.189Z,24.51
2019-05-18T16:35:34.213Z,24.50
2019-05-18T16:37:27.236Z,24.66
2019-05-18T16:38:27.274Z,24.57
2019-05-18T16:40:20.273Z,24.61
2019-05-18T16:41:20.333Z,24.55
2019-05-18T16:43:13.361Z,24.50
2019-05-18T16:44:13.403Z,24.43
2019-05-18T16:46:06.394Z,24.36
2019-05-18T16:47:06.487Z,24.43
2019-05-18T16:48:59.509Z,24.35
2019-05-18T16:49:59.527Z,24.36
2019-05-18T16:51:52.524Z,24.33
2019-05-18T16:52:52.592Z,24.26
2019-05-18T16:54:45.617Z,24.05
2019-05-18T16:55:45.671Z,23.99
2019-05-18T16:57:38.653Z,23.76
2019-05-18T16:58:38.714Z,23.63
2019-05-18T17:00:31.744Z,23.50
2019-05-18T17:01:31.778Z,23.43
2019-05-18T17:03:24.774Z,23.21
2019-05-18T17:04:24.836Z,22.99
2019-05-18T17:06:17.861Z,23.03
2019-05-18T17:07:17.940Z,23.00
2019-05-18T17:09:10.914Z,22.96
2019-05-18T17:10:10.967Z,22.96
2019-05-18T17:12:04.000Z,22.94
2019-05-18T17:13:04.037Z,22.96
2019-05-18T17:14:57.033Z,22.83
2019-05-18T17:15:57.102Z,22.76
2019-05-18T17:17:50.115Z,22.76
2019-05-18T17:18:50.163Z,22.68
2019-05-18T17:20:43.159Z,22.68
2019-05-18T17:21:43.223Z,22.68
2019-05-18T17:23:36.248Z,22.59
2019-05-18T17:24:36.287Z,22.69
2019-05-18T17:26:29.315Z,22.53
2019-05-18T17:27:29.354Z,22.63
2019-05-18T17:29:22.443Z,22.65
2019-05-18T17:30:22.407Z,22.59
2019-05-18T17:32:15.439Z,22.59
2019-05-18T17:33:15.467Z,22.55
2019-05-18T17:35:08.475Z,22.43
2019-05-18T17:36:08.526Z,22.35
2019-05-18T17:38:01.617Z,22.33
2019-05-18T17:39:01.629Z,22.25
2019-05-18T17:40:54.631Z,22.15
2019-05-18T17:41:54.672Z,22.11
2019-05-18T17:43:47.673Z,22.15
2019-05-18T17:44:47.717Z,22.06
2019-05-18T17:46:40.733Z,22.02
2019-05-18T17:47:40.780Z,22.04
2019-05-18T17:49:33.847Z,22.06
2019-05-18T17:50:33.836Z,22.00
2019-05-18T17:52:26.855Z,22.06
2019-05-18T17:53:26.896Z,22.00
2019-05-18T17:55:19.913Z,21.92
2019-05-18T17:56:19.960Z,21.88
2019-05-18T17:58:12.974Z,21.93
2019-05-18T17:59:13.019Z,21.89
2019-05-18T18:01:06.038Z,21.82
2019-05-18T18:02:06.080Z,21.77
2019-05-18T18:03:59.084Z,21.80
2019-05-18T18:05:00.099Z,21.77
2019-05-18T18:06:52.166Z,21.70
2019-05-18T18:07:55.311Z,21.67
2019-05-18T18:09:45.228Z,21.75
2019-05-18T18:10:45.270Z,21.60
2019-05-18T18:12:38.286Z,21.52
2019-05-18T18:13:38.329Z,21.50
2019-05-18T18:15:31.400Z,21.45
2019-05-18T18:16:31.395Z,21.46
2019-05-18T18:18:24.407Z,21.42
2019-05-18T18:19:24.454Z,21.50
2019-05-18T18:21:17.977Z,21.45
2019-05-18T18:22:18.018Z,21.43
2019-05-18T18:24:11.011Z,21.25
2019-05-18T18:25:11.091Z,21.32
2019-05-18T18:27:04.094Z,21.33
2019-05-18T18:28:04.132Z,21.24
2019-05-18T18:29:57.144Z,21.25
2019-05-18T18:30:57.190Z,21.21
2019-05-18T18:32:50.180Z,21.14
2019-05-18T18:33:50.245Z,21.02
2019-05-18T18:35:43.260Z,20.99
2019-05-18T18:36:43.305Z,21.05
2019-05-18T18:38:36.298Z,21.00
2019-05-18T18:39:36.361Z,20.97
2019-05-18T18:41:29.392Z,20.90
2019-05-18T18:42:29.434Z,20.82